Time;durP1;ratioP1;P1;durP2;ratioP2;P2;SDS_P1;SDS_P2;PMS_P1;PMS_P2;Temp;Humidity;BMP_temperature;BMP_pressure;BME280_temperature;BME280_humidity;BME280_pressure;Samples;Min_cycle;Max_cycle;Signal;HPM_P1;HPM_P2
2021/04/05 00:01:41;;;;;;;20.15;9.30;;;6.60;99.90;;;6.38;85.17;101815.59;4185313;28;20029;-73
2021/04/05 00:03:42;;;;;;;16.17;9.75;;;6.60;99.90;;;6.22;85.61;101799.22;4152280;28;20029;-73
2021/04/05 00:05:43;;;;;;;26.42;10.77;;;6.60;99.90;;;6.36;85.19;101819.28;4156501;28;20057;-73
2021/04/05 00:07:47;;;;;;;14.77;9.45;;;6.60;99.90;;;6.39;84.91;101816.44;4169677;28;20083;-73
2021/04/05 00:09:48;;;;;;;19.02;9.48;;;6.70;99.90;;;6.33;84.85;101814.25;4169796;28;20113;-73
2021/04/05 00:11:49;;;;;;;18.20;8.60;;;6.60;99.90;;;6.35;85.27;101812.34;4169503;28;20116;-73
2021/04/05 00:13:50;;;;;;;18.52;9.95;;;6.60;99.90;;;6.31;85.08;101803.84;4157114;28;20025;-74
2021/04/05 00:15:51;;;;;;;18.85;9.40;;;6.60;99.90;;;6.26;85.46;101807.72;4169788;28;20029;-74
2021/04/05 00:17:52;;;;;;;16.77;8.70;;;6.50;99.90;;;6.15;85.14;101792.72;4169728;28;20063;-74
2021/04/05 00:19:53;;;;;;;19.45;9.60;;;6.40;99.90;;;6.09;85.51;101790.50;4169834;28;20032;-74
2021/04/05 00:21:54;;;;;;;15.25;9.25;;;6.40;99.90;;;6.17;85.33;101764.63;4169956;28;20021;-74
2021/04/05 00:23:55;;;;;;;20.75;9.23;;;6.40;99.90;;;6.03;85.72;101772.59;4168373;28;20060;-74
2021/04/05 00:25:56;;;;;;;23.23;10.10;;;6.30;99.90;;;5.98;86.33;101764.16;4169664;28;20044;-74
2021/04/05 00:27:57;;;;;;;18.40;8.27;;;6.20;99.90;;;6.06;85.31;101756.66;4169565;28;20508;-73
2021/04/05 00:29:58;;;;;;;17.50;8.48;;;6.20;99.90;;;6.06;85.30;101752.25;4169694;28;20152;-74
2021/04/05 00:31:59;;;;;;;17.58;8.52;;;6.20;99.90;;;6.12;85.43;101751.03;4169558;28;20092;-73
2021/04/05 00:34:00;;;;;;;16.38;9.20;;;6.30;99.90;;;6.08;85.07;101741.69;4169661;28;20531;-73
2021/04/05 00:36:01;;;;;;;16.38;8.90;;;6.20;99.90;;;5.90;83.70;101735.03;4169619;28;20116;-74
2021/04/05 00:38:06;;;;;;;18.65;8.70;;;6.20;99.90;;;5.66;85.49;101734.00;4169174;28;20028;-74
2021/04/05 00:40:10;;;;;;;14.65;7.95;;;6.10;99.90;;;5.56;86.63;101732.00;4169490;28;20030;-74
2021/04/05 00:42:11;;;;;;;20.08;9.57;;;6.00;99.90;;;5.62;85.99;101735.13;4169484;28;20021;-74
2021/04/05 00:44:12;;;;;;;19.13;9.00;;;5.90;99.90;;;5.66;86.46;101736.63;4168150;28;20033;-74
2021/04/05 00:46:18;;;;;;;17.50;9.60;;;5.90;99.90;;;5.71;86.25;101724.06;4167940;28;20061;-74
2021/04/05 00:48:23;;;;;;;16.45;9.98;;;5.90;99.90;;;5.70;86.21;101730.25;4169303;28;20025;-74
2021/04/05 00:50:33;;;;;;;;;;;5.90;99.90;;;5.76;85.33;101728.09;4169322;28;20053;-74
2021/04/05 00:52:34;;;;;;;26.13;11.60;;;5.90;99.90;;;5.43;85.97;101738.97;4168901;28;19916;-74
2021/04/05 00:54:35;;;;;;;24.00;12.23;;;5.80;99.90;;;5.53;86.01;101737.41;4169382;28;20025;-74
2021/04/05 00:56:36;;;;;;;26.45;13.93;;;5.80;99.90;;;5.45;86.44;101734.47;4167926;28;20108;-74
2021/04/05 00:58:37;;;;;;;25.38;11.48;;;5.70;99.90;;;5.34;86.74;101720.41;4162575;28;20028;-74
2021/04/05 01:00:50;;;;;;;22.90;11.35;;;5.70;99.90;;;5.37;86.89;101714.97;4166849;28;20021;-74
2021/04/05 01:02:51;;;;;;;19.65;10.50;;;5.60;99.90;;;5.41;87.05;101709.44;4169152;28;20029;-74
2021/04/05 01:04:52;;;;;;;20.25;10.68;;;5.60;99.90;;;5.36;87.27;101711.50;4169016;28;20370;-74
2021/04/05 01:06:53;;;;;;;16.83;10.73;;;5.60;99.90;;;5.52;86.17;101709.59;4167791;28;20133;-74
2021/04/05 01:08:55;;;;;;;19.95;9.75;;;5.60;99.90;;;5.32;86.32;101689.09;4199918;28;20033;-74
2021/04/05 01:10:56;;;;;;;16.30;9.70;;;5.60;99.90;;;5.35;87.11;101717.66;4168828;28;20033;-73
2021/04/05 01:12:57;;;;;;;17.48;10.63;;;5.60;99.90;;;5.32;86.76;101715.25;4167587;28;20172;-74
2021/04/05 01:14:57;;;;;;;28.98;10.32;;;5.60;99.90;;;5.35;86.52;101724.69;4168871;28;20040;-74
2021/04/05 01:16:58;;;;;;;20.05;9.38;;;5.60;99.90;;;5.38;86.27;101722.72;4168755;28;20074;-74
2021/04/05 01:19:01;;;;;;;17.25;10.38;;;5.50;99.90;;;5.30;86.23;101716.28;4169003;28;20025;-74
2021/04/05 01:21:03;;;;;;;24.70;9.80;;;5.50;99.90;;;5.37;85.61;101697.50;4167134;28;20028;-74
2021/04/05 01:23:04;;;;;;;18.05;8.65;;;5.50;99.90;;;5.28;85.24;101684.16;4165104;28;20111;-74
2021/04/05 01:25:08;;;;;;;15.02;8.50;;;5.50;99.90;;;5.16;85.85;101672.72;4167578;28;20100;-74
2021/04/05 01:27:09;;;;;;;16.02;9.32;;;5.50;99.90;;;5.23;85.94;101681.00;4167824;28;20060;-74
2021/04/05 01:29:10;;;;;;;16.88;9.80;;;5.50;99.90;;;5.27;85.61;101664.16;4168520;28;20029;-74
2021/04/05 01:31:11;;;;;;;18.27;9.40;;;5.40;99.90;;;5.24;85.84;101653.91;4168634;28;20030;-74
2021/04/05 01:33:22;;;;;;;19.10;9.18;;;5.40;99.90;;;5.19;86.13;101663.84;4168679;28;20029;-74
2021/04/05 01:35:23;;;;;;;22.80;9.13;;;5.40;99.90;;;5.16;86.14;101653.56;4168628;28;20390;-73
2021/04/05 01:37:24;;;;;;;16.38;8.38;;;5.40;99.90;;;5.25;85.17;101656.44;4168370;28;20028;-73
2021/04/05 01:39:26;;;;;;;16.45;9.32;;;5.40;99.90;;;5.13;85.28;101652.00;4168434;28;20032;-73
2021/04/05 01:41:32;;;;;;;18.77;8.70;;;5.40;99.90;;;5.14;85.21;101650.22;4168686;28;20025;-74
2021/04/05 01:43:33;;;;;;;18.25;10.68;;;5.40;99.90;;;5.21;85.44;101657.56;4168679;28;20025;-74
2021/04/05 01:45:34;;;;;;;18.02;9.68;;;5.40;99.90;;;5.24;85.33;101661.75;4167374;28;20021;-74
2021/04/05 01:47:35;;;;;;;17.08;8.95;;;5.40;99.90;;;5.09;85.86;101650.50;4168388;28;20025;-74
2021/04/05 01:49:40;;;;;;;27.42;9.15;;;5.40;99.90;;;5.09;85.00;101655.75;4167008;28;20036;-73
2021/04/05 01:51:40;;;;;;;;;;;5.30;99.90;;;5.05;85.27;101656.06;4168920;28;20021;-74
2021/04/05 01:53:43;;;;;;;19.40;8.85;;;5.20;99.90;;;5.12;84.29;101658.16;4166969;28;19909;-74
2021/04/05 01:55:44;;;;;;;18.73;10.65;;;5.30;99.90;;;5.02;83.74;101655.28;4168366;28;20083;-73
2021/04/05 01:57:45;;;;;;;16.50;8.35;;;5.20;99.90;;;4.83;84.59;101640.88;4150898;28;20030;-74
2021/04/05 01:59:46;;;;;;;17.67;8.55;;;5.20;99.90;;;4.86;85.39;101646.75;4167231;28;20028;-74
2021/04/05 02:01:47;;;;;;;20.02;10.32;;;5.10;99.90;;;5.00;85.61;101640.63;4167209;28;20056;-74
2021/04/05 02:03:49;;;;;;;22.02;10.02;;;5.10;99.90;;;4.84;86.04;101648.63;4168299;28;20029;-74
2021/04/05 02:05:59;;;;;;;19.40;10.35;;;5.10;99.90;;;4.74;87.14;101644.94;4168438;28;20030;-74
2021/04/05 02:08:00;;;;;;;20.20;9.82;;;5.10;99.90;;;4.80;87.06;101643.69;4167015;28;20021;-73
2021/04/05 02:10:12;;;;;;;23.23;9.00;;;5.10;99.90;;;4.78;86.96;101654.22;4168258;28;20025;-74
2021/04/05 02:12:13;;;;;;;19.30;8.80;;;5.00;99.90;;;4.73;86.51;101645.84;4164853;28;20025;-73
2021/04/05 02:14:14;;;;;;;16.50;9.95;;;5.00;99.90;;;4.60;85.55;101642.31;4157542;28;20156;-73
2021/04/05 02:16:17;;;;;;;20.38;9.27;;;4.90;99.90;;;4.62;86.43;101645.69;4167212;28;20025;-73
2021/04/05 02:18:24;;;;;;;15.88;9.13;;;4.90;99.90;;;4.60;86.68;101658.00;4166893;28;20456;-73
2021/04/05 02:20:25;;;;;;;17.95;9.93;;;4.90;99.90;;;4.67;85.99;101655.84;4167263;28;20087;-74
2021/04/05 02:22:26;;;;;;;14.18;8.10;;;4.80;99.90;;;4.70;84.21;101653.88;4167080;28;20029;-73
2021/04/05 02:24:27;;;;;;;15.90;8.02;;;4.80;99.90;;;4.65;83.93;101663.78;4168291;28;20033;-73
2021/04/05 02:26:32;;;;;;;24.95;9.18;;;4.90;99.90;;;4.58;83.96;101659.03;4168210;28;20037;-73
2021/04/05 02:28:46;;;;;;;21.42;8.60;;;4.80;99.90;;;4.48;85.50;101659.59;4167186;28;20029;-73
2021/04/05 02:30:47;;;;;;;20.05;8.60;;;4.70;99.90;;;4.57;86.45;101663.41;4168279;28;20067;-73
2021/04/05 02:33:04;;;;;;;19.80;8.82;;;4.70;99.90;;;4.46;87.33;101648.41;4170546;28;20070;-73
2021/04/05 02:35:07;;;;;;;15.48;8.98;;;4.80;99.90;;;4.63;87.66;101675.28;4170139;28;20029;-73
2021/04/05 02:37:08;;;;;;;14.23;8.77;;;4.80;99.90;;;4.58;87.03;101672.09;4171307;28;20028;-74
2021/04/05 02:39:11;;;;;;;18.95;8.65;;;4.80;99.90;;;4.62;86.01;101670.97;4171362;28;20029;-74
2021/04/05 02:41:14;;;;;;;17.03;9.07;;;4.80;99.90;;;4.72;86.30;101674.72;4171268;28;20053;-73
2021/04/05 02:43:15;;;;;;;20.95;9.63;;;4.90;99.90;;;4.64;88.17;101672.56;4171245;28;20272;-74
2021/04/05 02:45:20;;;;;;;22.83;9.40;;;4.80;99.90;;;4.81;88.00;101658.41;4170237;28;20470;-73
2021/04/05 02:47:21;;;;;;;22.08;9.13;;;4.90;99.90;;;4.85;88.60;101672.97;4170198;28;20455;-74
2021/04/05 02:49:23;;;;;;;18.77;9.27;;;5.00;99.90;;;4.82;88.50;101655.72;4170814;28;20519;-73
2021/04/05 02:51:25;;;;;;;19.63;8.80;;;5.10;99.90;;;4.90;88.07;101668.28;4171197;28;20022;-73
2021/04/05 02:53:27;;;;;;;17.90;8.45;;;5.10;99.90;;;4.86;88.64;101666.84;4170876;28;20439;-73
2021/04/05 02:55:28;;;;;;;19.50;9.85;;;5.10;99.90;;;5.01;87.43;101664.09;4169774;28;20025;-73
2021/04/05 02:57:32;;;;;;;20.88;9.02;;;5.10;99.90;;;5.00;88.01;101679.84;4169969;28;20399;-73
2021/04/05 02:59:33;;;;;;;17.25;9.88;;;5.20;99.90;;;4.95;88.52;101666.25;4160024;28;20025;-74
2021/04/05 03:01:34;;;;;;;18.38;9.38;;;5.20;99.90;;;4.98;88.57;101681.75;4169827;28;20112;-74
2021/04/05 03:03:47;;;;;;;19.65;9.60;;;5.20;99.90;;;4.95;87.94;101687.16;4169621;28;20033;-73
2021/04/05 03:05:49;;;;;;;22.25;9.90;;;5.20;99.90;;;4.97;87.71;101690.50;4169745;28;20029;-73
2021/04/05 03:07:51;;;;;;;19.35;8.52;;;5.20;99.90;;;4.97;88.00;101687.91;4169368;28;20589;-73
2021/04/05 03:09:52;;;;;;;14.95;7.93;;;5.10;99.90;;;4.85;89.03;101686.91;4170728;28;20053;-74
2021/04/05 03:11:57;;;;;;;19.20;9.98;;;5.10;99.90;;;4.91;87.69;101685.66;4169525;28;20026;-74
2021/04/05 03:13:58;;;;;;;22.92;8.82;;;5.10;99.90;;;4.87;87.27;101686.78;4169385;28;20200;-74
2021/04/05 03:16:01;;;;;;;19.05;9.75;;;5.10;99.90;;;4.95;86.56;101676.72;4162440;28;20087;-73
2021/04/05 03:18:06;;;;;;;17.92;9.80;;;5.10;99.90;;;4.87;87.95;101673.72;4169348;28;20022;-73
2021/04/05 03:20:21;;;;;;;19.35;8.55;;;5.10;99.90;;;4.83;88.14;101669.63;4168547;28;20051;-73
2021/04/05 03:22:22;;;;;;;27.58;10.38;;;5.10;99.90;;;4.69;89.53;101662.66;4169450;28;20063;-73
2021/04/05 03:24:24;;;;;;;25.77;9.50;;;5.00;99.90;;;4.79;89.39;101660.31;4169656;28;20437;-73
2021/04/05 03:26:25;;;;;;;21.77;9.80;;;5.00;99.90;;;4.78;89.49;101656.84;4169501;28;20030;-73
2021/04/05 03:28:25;;;;;;;23.92;9.48;;;5.00;99.90;;;4.84;89.57;101646.00;4170679;28;20037;-73
2021/04/05 03:30:46;;;;;;;24.00;9.35;;;5.10;99.90;;;4.95;89.41;101666.25;4169175;28;20030;-73
2021/04/05 03:32:53;;;;;;;17.63;9.20;;;5.10;99.90;;;4.79;90.41;101647.22;4169377;28;20030;-74
2021/04/05 03:35:03;;;;;;;16.48;8.68;;;5.10;99.90;;;4.80;91.30;101651.53;4169484;28;20040;-73
2021/04/05 03:37:08;;;;;;;17.88;9.18;;;5.10;99.90;;;4.67;91.61;101646.22;4169282;28;20021;-73
2021/04/05 03:39:11;;;;;;;16.98;8.25;;;5.10;99.90;;;4.89;89.54;101656.19;4169328;28;20048;-73
2021/04/05 03:42:08;;;;;;;19.50;9.05;;;5.00;99.90;;;5.00;88.60;101658.94;4169121;28;20059;-73
2021/04/05 03:44:44;;;;;;;20.83;9.00;;;5.10;99.90;;;5.06;87.71;101652.47;4151811;28;20041;-74
2021/04/05 03:46:47;;;;;;;21.73;9.05;;;5.20;99.90;;;4.92;88.14;101650.75;4183756;28;20029;-73
2021/04/05 03:49:01;;;;;;;19.35;8.00;;;5.20;99.90;;;4.91;87.82;101646.47;4169088;28;20037;-74
2021/04/05 03:51:32;;;;;;;20.33;8.25;;;5.10;99.90;;;4.74;88.69;101644.09;4170159;28;20029;-74
2021/04/05 03:54:10;;;;;;;20.10;8.25;;;5.10;99.90;;;4.38;89.55;101640.22;4168972;28;20500;-74
2021/04/05 03:56:21;;;;;;;15.90;8.38;;;4.90;99.90;;;4.33;90.15;101631.81;4170342;28;20493;-73
2021/04/05 03:58:24;;;;;;;19.15;7.82;;;4.80;99.90;;;4.38;89.66;101634.16;4170475;28;20034;-73
2021/04/05 04:00:29;;;;;;;17.52;9.27;;;4.70;99.90;;;4.45;89.83;101636.28;4168838;28;20116;-73
2021/04/05 04:02:46;;;;;;;21.52;9.15;;;4.70;99.90;;;4.44;89.47;101639.84;4156583;28;20484;-74
2021/04/05 04:05:00;;;;;;;29.13;9.90;;;4.70;99.90;;;4.46;89.06;101643.19;4169055;28;20036;-74
2021/04/05 04:09:16;;;;;;;18.30;8.85;;;4.70;99.90;;;4.61;88.68;101619.63;4168945;28;20060;-74
2021/04/05 04:11:24;;;;;;;18.40;8.27;;;4.70;99.90;;;4.58;89.25;101625.06;4170213;28;20418;-73
2021/04/05 04:13:27;;;;;;;16.95;8.38;;;4.70;99.90;;;4.47;89.41;101612.69;4168727;28;20041;-74
2021/04/05 04:15:29;;;;;;;17.58;7.95;;;4.80;99.90;;;4.48;89.74;101604.72;4168781;28;20448;-73
2021/04/05 04:17:34;;;;;;;17.08;8.75;;;4.70;99.90;;;4.56;89.24;101611.25;4168715;28;20399;-74
2021/04/05 04:19:37;;;;;;;21.27;8.55;;;4.70;99.90;;;4.58;88.47;101607.63;4168538;28;20018;-73
2021/04/05 04:21:41;;;;;;;14.63;7.70;;;4.70;99.90;;;4.59;88.56;101605.84;4166427;28;20029;-74
2021/04/05 04:23:44;;;;;;;17.08;9.35;;;4.80;99.90;;;4.57;88.98;101615.56;4168432;28;20029;-74
2021/04/05 04:25:45;;;;;;;20.83;8.80;;;4.70;99.90;;;4.41;89.37;101598.22;4169731;28;20036;-74
2021/04/05 04:27:46;;;;;;;19.63;8.73;;;4.70;99.90;;;4.59;88.52;101611.06;4169678;28;20026;-74
2021/04/05 04:29:57;;;;;;;17.42;8.77;;;4.70;99.90;;;4.55;89.16;101606.97;4169435;28;20033;-73
2021/04/05 04:31:59;;;;;;;18.92;8.55;;;4.70;99.90;;;4.41;89.83;101605.22;4169549;28;20045;-74
2021/04/05 04:34:00;;;;;;;19.27;8.30;;;4.70;99.90;;;4.41;90.02;101613.91;4169595;28;20029;-74
2021/04/05 04:36:02;;;;;;;18.17;7.68;;;4.60;99.90;;;4.32;89.02;101601.41;4169534;28;20075;-74
2021/04/05 04:38:04;;;;;;;19.23;8.93;;;4.60;99.90;;;4.42;89.90;101612.13;4168108;28;20112;-73
2021/04/05 04:40:07;;;;;;;13.10;7.75;;;4.70;99.90;;;4.38;89.89;101608.88;4169574;28;20457;-74
2021/04/05 04:42:10;;;;;;;14.70;8.75;;;4.70;99.90;;;4.43;89.24;101611.19;4169653;28;20034;-74
2021/04/05 04:44:13;;;;;;;14.95;7.70;;;4.70;99.90;;;4.46;88.94;101611.00;4169316;28;20026;-74
2021/04/05 04:46:13;;;;;;;15.30;7.95;;;4.70;99.90;;;4.41;89.33;101598.22;4169509;28;20069;-73
2021/04/05 04:48:15;;;;;;;19.10;9.20;;;4.60;99.90;;;4.44;89.07;101603.28;4169324;28;20029;-73
2021/04/05 04:50:17;;;;;;;14.45;7.50;;;4.70;99.90;;;4.44;88.35;101611.09;4169126;28;20105;-73
2021/04/05 04:52:20;;;;;;;21.27;8.88;;;4.70;99.90;;;4.61;87.53;101609.19;4169032;28;20028;-74
2021/04/05 04:54:22;;;;;;;15.70;8.77;;;4.70;99.90;;;4.48;87.63;101612.56;4167558;28;20029;-74
2021/04/05 04:56:24;;;;;;;17.30;8.77;;;4.80;99.90;;;4.41;88.85;101611.28;4168977;28;20080;-73
2021/04/05 04:58:25;;;;;;;18.92;8.35;;;4.70;99.90;;;4.42;88.66;101623.41;4169331;28;20048;-73
2021/04/05 05:00:32;;;;;;;16.98;8.13;;;4.70;99.90;;;4.42;87.71;101622.59;4169068;28;20025;-73
2021/04/05 05:02:41;;;;;;;17.65;7.63;;;4.60;99.90;;;4.38;88.68;101623.69;4169203;28;20033;-74
2021/04/05 05:04:42;;;;;;;17.75;8.65;;;4.70;99.90;;;4.34;88.46;101623.03;4169241;28;20021;-73
2021/04/05 05:06:44;;;;;;;19.33;8.18;;;4.60;99.90;;;4.50;86.82;101628.16;4168978;28;20508;-74
2021/04/05 05:08:46;;;;;;;17.58;7.70;;;4.70;99.90;;;4.65;88.05;101631.59;4167963;28;20052;-74
2021/04/05 05:10:47;;;;;;;14.20;8.27;;;4.80;99.90;;;4.47;87.94;101634.44;4157319;28;20537;-73
2021/04/05 05:12:48;;;;;;;17.73;8.45;;;4.90;99.90;;;4.68;87.69;101634.84;4160432;28;20049;-74
2021/04/05 05:14:49;;;;;;;19.45;9.05;;;4.90;99.90;;;4.72;87.37;101627.66;4163316;28;20087;-74
2021/04/05 05:16:53;;;;;;;26.20;10.65;;;5.10;99.90;;;4.88;86.94;101626.59;4167829;28;20018;-73
2021/04/05 05:18:56;;;;;;;21.08;8.98;;;5.10;99.90;;;4.89;88.19;101609.13;4167951;28;20028;-74
2021/04/05 05:21:02;;;;;;;17.80;6.90;;;5.30;99.90;;;5.14;86.82;101622.28;4167774;28;20038;-73
2021/04/05 05:23:04;;;;;;;18.98;8.15;;;5.30;99.90;;;5.15;87.15;101626.56;4168714;28;20032;-73
2021/04/05 05:25:07;;;;;;;27.63;9.82;;;5.50;99.90;;;5.33;87.99;101627.16;4168807;28;20029;-73
2021/04/05 05:27:10;;;;;;;20.58;9.10;;;5.60;99.90;;;5.30;88.17;101625.56;4167539;28;20037;-74
2021/04/05 05:29:13;;;;;;;28.65;9.95;;;5.70;99.90;;;5.53;87.31;101634.50;4168733;28;20025;-73
2021/04/05 05:31:14;;;;;;;23.23;9.90;;;5.80;99.90;;;5.50;88.43;101632.94;4168447;28;20029;-74
2021/04/05 05:33:15;;;;;;;22.83;10.13;;;5.90;99.90;;;5.52;88.71;101631.09;4168776;28;20404;-74
2021/04/05 05:35:18;;;;;;;21.75;10.30;;;6.00;99.90;;;5.69;88.32;101629.09;4167673;28;20025;-74
2021/04/05 05:37:21;;;;;;;27.42;12.13;;;6.10;99.90;;;5.75;88.22;101632.16;4167099;28;20444;-74
2021/04/05 05:39:22;;;;;;;26.75;12.35;;;6.10;99.90;;;5.77;88.83;101625.03;4167278;28;20053;-74
2021/04/05 05:42:04;;;;;;;25.40;11.80;;;6.20;99.90;;;5.71;88.87;101625.44;4167559;28;20453;-73
2021/04/05 05:44:24;;;;;;;26.92;12.70;;;6.20;99.90;;;5.90;89.18;101627.69;4168017;28;20052;-73
2021/04/05 05:46:50;;;;;;;24.35;10.82;;;6.30;99.90;;;5.98;89.48;101636.69;4168672;28;20056;-73
2021/04/05 05:49:21;;;;;;;25.42;11.85;;;6.40;99.90;;;5.89;89.92;101615.53;4167243;28;20492;-74
2021/04/05 05:51:49;;;;;;;30.52;13.85;;;6.40;99.90;;;6.05;89.53;101622.25;4167201;28;20532;-73
2021/04/05 05:54:04;;;;;;;22.38;10.85;;;6.50;99.90;;;6.08;89.00;101621.19;4168404;28;20121;-73
2021/04/05 05:56:16;;;;;;;29.90;10.48;;;6.50;99.90;;;6.09;89.60;101621.06;4167116;28;20413;-73
2021/04/05 05:58:33;;;;;;;25.83;11.07;;;6.60;99.90;;;6.16;89.62;101621.50;4161670;28;20083;-74
2021/04/05 06:00:45;;;;;;;21.80;10.25;;;6.60;99.90;;;6.22;90.12;101610.59;4165741;28;20034;-73
2021/04/05 06:03:13;;;;;;;25.35;10.95;;;6.60;99.90;;;6.24;89.35;101615.75;4188645;28;20051;-74
2021/04/05 06:05:53;;;;;;;19.02;10.05;;;6.60;99.90;;;6.32;88.92;101614.25;4166974;28;20029;-73
2021/04/05 06:08:20;;;;;;;19.85;10.07;;;6.60;99.90;;;6.19;89.05;101618.66;4171591;28;20068;-74
2021/04/05 06:10:47;;;;;;;20.80;10.20;;;6.60;99.90;;;6.25;89.20;101617.38;4171532;28;20037;-74
2021/04/05 06:13:09;;;;;;;19.92;10.80;;;6.60;99.90;;;6.27;88.93;101611.13;4170645;28;20029;-74
2021/04/05 06:15:16;;;;;;;25.95;10.05;;;6.60;99.90;;;6.24;88.44;101600.03;4186718;28;20033;-74
2021/04/05 06:17:24;;;;;;;15.73;9.52;;;6.60;99.90;;;6.21;88.84;101610.72;4170483;28;20026;-73
2021/04/05 06:19:50;;;;;;;22.65;10.27;;;6.60;99.90;;;6.23;87.89;101604.41;4163744;28;20030;-73
2021/04/05 06:22:41;;;;;;;19.15;9.50;;;6.60;99.90;;;6.20;87.41;101604.63;4171404;28;20029;-74
2021/04/05 06:24:44;;;;;;;19.10;9.52;;;6.60;99.90;;;6.15;88.33;101606.75;4170094;28;20029;-74
2021/04/05 06:27:23;;;;;;;21.50;9.65;;;6.60;99.90;;;6.07;88.30;101603.78;4170395;28;20037;-74
2021/04/05 06:29:54;;;;;;;20.30;11.05;;;6.50;99.90;;;6.10;88.84;101596.56;4167383;28;20041;-74
2021/04/05 06:32:32;;;;;;;20.20;10.30;;;6.50;99.90;;;6.09;88.62;101602.75;4171417;28;20424;-74
2021/04/05 06:34:35;;;;;;;25.42;11.43;;;6.50;99.90;;;6.11;88.72;101602.66;4171048;28;20037;-74
2021/04/05 06:37:11;;;;;;;25.40;11.50;;;6.50;99.90;;;6.09;88.99;101594.06;4170053;28;20032;-73
2021/04/05 06:39:27;;;;;;;21.88;10.15;;;6.50;99.90;;;6.19;88.91;101607.34;4170258;28;20041;-73
2021/04/05 06:41:35;;;;;;;23.67;10.48;;;6.50;99.90;;;6.12;89.34;101612.19;4170160;28;20426;-74
2021/04/05 06:44:38;;;;;;;25.50;11.18;;;6.50;99.90;;;6.22;88.91;101605.34;4169703;28;20127;-73
2021/04/05 06:47:22;;;;;;;18.85;10.23;;;6.50;99.90;;;6.36;87.62;101607.84;4158702;28;20136;-73
2021/04/05 06:49:50;;;;;;;23.10;10.43;;;6.60;99.90;;;6.40;88.58;101613.69;4170244;28;20048;-74
2021/04/05 06:52:20;;;;;;;18.85;10.23;;;6.70;99.90;;;6.39;89.66;101612.84;4170301;28;20029;-74
2021/04/05 06:54:52;;;;;;;24.05;9.90;;;6.70;99.90;;;6.38;89.22;101616.44;4171082;28;20539;-74
2021/04/05 06:57:21;;;;;;;20.02;10.25;;;6.70;99.90;;;6.38;89.61;101611.19;4165130;28;20049;-75
2021/04/05 07:00:00;;;;;;;17.45;9.30;;;6.70;99.90;;;6.46;89.20;101614.09;4159852;28;20041;-74
2021/04/05 07:02:20;;;;;;;24.85;11.93;;;6.80;99.90;;;6.61;88.07;101612.19;4168504;28;20416;-75
2021/04/05 07:04:20;;;;;;;16.80;10.13;;;6.90;99.90;;;6.77;88.34;101617.19;4170825;28;20061;-75
2021/04/05 07:07:05;;;;;;;24.65;12.25;;;7.10;99.90;;;7.00;87.81;101616.34;4170746;28;20052;-75
2021/04/05 07:09:45;;;;;;;27.13;14.05;;;7.30;99.90;;;7.28;86.94;101615.16;4170264;28;20056;-74
2021/04/05 07:12:28;;;;;;;35.22;15.95;;;7.50;99.90;;;7.47;85.72;101611.03;4178901;28;20429;-76
2021/04/05 07:15:05;;;;;;;36.25;13.75;;;7.80;99.90;;;7.58;85.21;101613.72;4159734;28;20029;-76
2021/04/05 07:17:54;;;;;;;34.05;18.15;;;8.10;99.90;;;7.56;84.49;101609.50;4157663;28;20108;-76
2021/04/05 07:20:01;;;;;;;32.83;16.17;;;8.30;99.90;;;7.78;84.90;101613.03;4153141;28;20508;-75
2021/04/05 07:22:32;;;;;;;28.13;15.30;;;8.50;99.90;;;7.88;85.43;101599.22;4170343;28;20029;-75
2021/04/05 07:24:50;;;;;;;30.35;12.48;;;8.60;99.90;;;8.00;84.90;101611.41;4169364;28;20064;-76
2021/04/05 07:27:54;;;;;;;29.10;12.63;;;8.70;99.90;;;7.96;84.64;101604.69;4169448;28;20155;-76
2021/04/05 07:30:13;;;;;;;24.65;11.07;;;8.90;99.90;;;8.06;83.63;101608.31;4161624;28;20575;-76
2021/04/05 07:33:04;;;;;;;22.15;11.43;;;8.90;99.90;;;8.07;84.09;101605.53;4167653;28;20049;-74
2021/04/05 07:35:47;;;;;;;19.15;10.50;;;9.00;99.90;;;8.28;84.56;101611.78;4166104;28;20029;-73
2021/04/05 07:38:02;;;;;;;18.83;9.02;;;9.10;99.90;;;8.29;83.12;101602.13;4164933;28;20389;-74
2021/04/05 07:40:26;;;;;;;19.67;8.98;;;9.20;99.90;;;8.09;84.54;101622.03;4168007;28;20025;-73
2021/04/05 07:43:16;;;;;;;21.83;8.73;;;9.30;99.90;;;8.36;83.10;101607.72;4168366;28;20036;-74
2021/04/05 07:45:34;;;;;;;17.25;9.07;;;9.40;99.90;;;8.54;82.20;101604.47;4161558;28;20044;-75
2021/04/05 07:48:03;;;;;;;23.85;10.82;;;9.40;99.90;;;8.38;82.36;101605.81;4169648;28;20040;-75
2021/04/05 07:50:26;;;;;;;19.73;8.20;;;9.60;99.90;;;8.37;81.90;101598.88;4169328;28;20072;-76
2021/04/05 07:52:50;;;;;;;15.20;8.73;;;9.50;99.90;;;8.45;81.50;101599.13;4169505;28;20496;-76
2021/04/05 07:54:52;;;;;;;18.10;9.25;;;9.50;99.90;;;8.51;82.04;101588.94;4167076;28;20090;-75
2021/04/05 07:57:09;;;;;;;14.85;8.57;;;9.50;99.90;;;8.51;81.66;101594.19;4167433;28;20480;-75
2021/04/05 08:00:10;;;;;;;18.33;10.00;;;9.50;99.90;;;8.34;81.85;101586.81;4167443;28;20497;-75
2021/04/05 08:02:11;;;;;;;20.48;9.30;;;9.40;99.90;;;8.56;82.51;101584.16;4150154;28;20045;-78
2021/04/05 08:04:59;;;;;;;20.08;9.35;;;9.40;99.90;;;8.58;82.27;101574.34;4151473;28;20548;-76
2021/04/05 08:07:15;;;;;;;20.77;9.30;;;9.40;99.90;;;8.68;81.69;101583.19;4146161;28;20121;-79
2021/04/05 08:09:19;;;;;;;25.05;9.40;;;9.50;99.90;;;8.85;81.54;101587.91;4167124;28;20040;-78
2021/04/05 08:11:38;;;;;;;23.95;10.95;;;9.60;99.90;;;8.97;79.97;101593.13;4161378;28;20029;-75
2021/04/05 08:14:14;;;;;;;21.90;9.60;;;9.80;99.90;;;9.17;78.16;101587.09;4168176;28;20029;-76
2021/04/05 08:16:32;;;;;;;18.02;8.90;;;10.10;99.90;;;9.09;78.38;101592.13;4169542;28;20457;-75
2021/04/05 08:19:07;;;;;;;22.13;10.48;;;10.30;99.90;;;9.23;78.55;101586.56;4166546;28;20030;-75
2021/04/05 08:21:21;;;;;;;19.77;8.55;;;10.50;99.90;;;9.09;79.54;101571.06;4162763;28;20029;-73
2021/04/05 08:24:12;;;;;;;20.80;8.73;;;10.60;99.90;;;8.82;80.70;101569.75;4167218;28;20474;-73
2021/04/05 08:26:39;;;;;;;17.92;9.27;;;10.60;99.90;;;9.28;79.90;101572.06;4164967;28;20030;-74
2021/04/05 08:29:24;;;;;;;18.48;9.52;;;10.60;99.90;;;9.50;78.10;101571.09;4169170;28;20539;-75
2021/04/05 08:32:04;;;;;;;19.48;8.90;;;10.80;99.90;;;9.65;77.88;101553.16;4166992;28;20489;-75
2021/04/05 08:34:59;;;;;;;21.63;9.15;;;11.00;99.90;;;9.51;77.95;101559.59;4166690;28;20428;-74
2021/04/05 08:37:20;;;;;;;20.40;9.27;;;11.20;99.90;;;9.68;76.34;101555.53;4168466;28;20145;-76
2021/04/05 08:39:37;;;;;;;17.23;7.85;;;11.20;99.90;;;10.02;76.51;101567.50;4166721;28;20393;-75
2021/04/05 08:42:05;;;;;;;15.95;9.68;;;11.30;99.90;;;10.30;75.82;101555.44;4171906;28;20029;-73
2021/04/05 08:44:31;;;;;;;18.45;9.48;;;11.50;99.90;;;10.47;76.60;101563.53;4177089;28;20056;-76
2021/04/05 08:46:33;;;;;;;11.57;7.63;;;11.60;99.90;;;10.53;76.57;101572.72;4163353;28;20112;-76
2021/04/05 08:48:43;;;;;;;16.45;9.02;;;11.80;99.90;;;10.46;73.91;101561.84;4158687;28;20025;-75
2021/04/05 08:51:04;;;;;;;14.57;7.90;;;11.90;99.90;;;10.55;73.56;101557.56;4163319;28;20113;-75
2021/04/05 08:53:07;;;;;;;16.40;7.45;;;11.90;99.90;;;10.65;73.64;101561.06;4165715;28;20512;-76
2021/04/05 08:55:22;;;;;;;20.33;8.85;;;12.00;99.90;;;10.44;73.36;101573.50;4165052;28;20044;-75
2021/04/05 08:57:29;;;;;;;17.00;8.68;;;12.00;99.90;;;10.28;73.86;101568.75;4165625;28;20022;-74
2021/04/05 08:59:41;;;;;;;15.05;7.45;;;11.90;99.90;;;10.43;73.06;101577.13;4167476;28;20400;-74
2021/04/05 09:01:57;;;;;;;16.13;8.60;;;11.90;99.90;;;10.12;74.39;101572.81;4168121;28;20030;-71
2021/04/05 09:03:58;;;;;;;13.90;7.22;;;11.80;99.90;;;10.51;74.37;101564.09;4167685;28;20022;-71
2021/04/05 09:05:59;;;;;;;16.30;8.63;;;12.00;99.90;;;10.58;75.46;101554.66;4168387;28;20025;-72
2021/04/05 09:08:11;;;;;;;11.10;7.60;;;12.00;99.90;;;10.93;74.09;101546.25;4167166;28;20022;-71
2021/04/05 09:10:17;;;;;;;14.23;7.93;;;12.20;99.90;;;11.03;73.26;101562.91;4167261;28;20069;-71
2021/04/05 09:12:19;;;;;;;15.85;8.32;;;12.40;99.90;;;10.72;72.79;101569.28;4167156;28;20025;-71
2021/04/05 09:14:22;;;;;;;13.50;7.32;;;12.40;99.90;;;10.78;73.43;101574.00;4167350;28;20033;-74